createdAt,value
2018-03-18T00:01:28.904Z,-2.30
2018-03-18T00:03:56.420Z,-2.30
2018-03-18T00:06:23.939Z,-2.30
2018-03-18T00:08:51.428Z,-2.30
2018-03-18T00:11:18.934Z,-2.30
2018-03-18T00:13:46.529Z,-2.30
2018-03-18T00:16:14.031Z,-2.30
2018-03-18T00:18:41.906Z,-2.30
2018-03-18T00:21:09.407Z,-2.30
2018-03-18T00:23:37.292Z,-2.30
2018-03-18T00:26:05.281Z,-2.30
2018-03-18T00:28:32.773Z,-2.30
2018-03-18T00:31:00.755Z,-2.30
2018-03-18T00:33:28.243Z,-2.30
2018-03-18T00:35:55.744Z,-2.30
2018-03-18T00:38:23.252Z,-2.30
2018-03-18T00:40:50.767Z,-2.30
2018-03-18T00:43:18.359Z,-2.20
2018-03-18T00:45:45.868Z,-2.20
2018-03-18T00:48:13.764Z,-2.20
2018-03-18T00:50:41.736Z,-2.30
2018-03-18T00:53:09.232Z,-2.30
2018-03-18T00:55:37.165Z,-2.40
2018-03-18T00:58:04.652Z,-2.30
2018-03-18T01:00:32.144Z,-2.30
2018-03-18T01:02:59.672Z,-2.30
2018-03-18T01:05:27.159Z,-2.30
2018-03-18T01:07:54.763Z,-2.30
2018-03-18T01:10:22.248Z,-2.30
2018-03-18T01:12:49.808Z,-2.30
2018-03-18T01:15:17.289Z,-2.30
2018-03-18T01:17:44.871Z,-2.30
2018-03-18T01:20:12.363Z,-2.30
2018-03-18T01:22:39.867Z,-2.20
2018-03-18T01:25:07.752Z,-2.20
2018-03-18T01:27:35.651Z,-2.30
2018-03-18T01:30:03.619Z,-2.20
2018-03-18T01:32:31.120Z,-2.20
2018-03-18T01:34:59.000Z,-2.30
2018-03-18T01:37:26.602Z,-2.20
2018-03-18T01:39:54.482Z,-2.30
2018-03-18T01:42:22.460Z,-2.30
2018-03-18T01:44:50.039Z,-2.30
2018-03-18T01:47:17.545Z,-2.30
2018-03-18T01:49:45.424Z,-2.20
2018-03-18T01:52:13.421Z,-2.20
2018-03-18T01:54:40.999Z,-2.20
2018-03-18T01:57:08.499Z,-2.20
2018-03-18T01:59:36.479Z,-2.30
2018-03-18T02:02:03.984Z,-2.30
2018-03-18T02:04:31.867Z,-2.30
2018-03-18T02:06:59.766Z,-2.30
2018-03-18T02:09:27.643Z,-2.40
2018-03-18T02:11:55.221Z,-2.40
2018-03-18T02:14:22.808Z,-2.40
2018-03-18T02:16:50.724Z,-2.50
2018-03-18T02:19:18.689Z,-2.50
2018-03-18T02:21:46.190Z,-2.40
2018-03-18T02:24:13.764Z,-2.50
2018-03-18T02:26:41.248Z,-2.50
2018-03-18T02:29:08.826Z,-2.40
2018-03-18T02:31:36.307Z,-2.50
2018-03-18T02:34:03.900Z,-2.40
2018-03-18T02:36:31.383Z,-2.40
2018-03-18T02:38:58.947Z,-2.40
2018-03-18T02:41:26.417Z,-2.50
2018-03-18T02:43:54.030Z,-2.40
2018-03-18T02:46:21.618Z,-2.50
2018-03-18T02:48:49.137Z,-2.50
2018-03-18T02:51:16.627Z,-2.50
2018-03-18T02:53:44.127Z,-2.50
2018-03-18T02:56:11.651Z,-2.40
2018-03-18T02:58:39.246Z,-2.50
2018-03-18T03:01:06.807Z,-2.40
2018-03-18T03:03:34.321Z,-2.40
2018-03-18T03:06:01.811Z,-2.40
2018-03-18T03:08:29.745Z,-2.50
2018-03-18T03:10:57.263Z,-2.50
2018-03-18T03:13:24.783Z,-2.40
2018-03-18T03:15:52.750Z,-2.40
2018-03-18T03:18:20.255Z,-2.40
2018-03-18T03:20:47.744Z,-2.40
2018-03-18T03:23:15.312Z,-2.40
2018-03-18T03:25:43.199Z,-2.30
2018-03-18T03:28:11.188Z,-2.40
2018-03-18T03:30:38.669Z,-2.40
2018-03-18T03:33:06.592Z,-2.40
2018-03-18T03:35:34.143Z,-2.40
2018-03-18T03:38:01.727Z,-2.40
2018-03-18T03:40:29.214Z,-2.50
2018-03-18T03:42:56.716Z,-2.40
2018-03-18T03:45:24.603Z,-2.40
2018-03-18T03:47:52.511Z,-2.50
2018-03-18T03:50:20.011Z,-2.40
2018-03-18T03:52:47.504Z,-2.40
2018-03-18T03:55:15.011Z,-2.40
2018-03-18T03:57:42.506Z,-2.40
2018-03-18T04:00:10.018Z,-2.40
2018-03-18T04:02:37.980Z,-2.50
2018-03-18T04:05:05.571Z,-2.40
2018-03-18T04:07:33.058Z,-2.50
2018-03-18T04:10:00.635Z,-2.50
2018-03-18T04:12:28.119Z,-2.60
2018-03-18T04:14:55.627Z,-2.50
2018-03-18T04:17:23.502Z,-2.50
2018-03-18T04:19:51.084Z,-2.60
2018-03-18T04:22:18.571Z,-2.50
2018-03-18T04:24:46.080Z,-2.50
2018-03-18T04:27:13.955Z,-2.50
2018-03-18T04:29:41.850Z,-2.50
2018-03-18T04:32:09.722Z,-2.50
2018-03-18T04:34:37.219Z,-2.50
2018-03-18T04:37:04.707Z,-2.60
2018-03-18T04:39:32.615Z,-2.60
2018-03-18T04:42:00.495Z,-2.50
2018-03-18T04:44:28.395Z,-2.40
2018-03-18T04:46:56.359Z,-2.50
2018-03-18T04:49:23.863Z,-2.40
2018-03-18T04:51:51.412Z,-2.50
2018-03-18T04:54:19.016Z,-2.50
2018-03-18T04:56:46.499Z,-2.60
2018-03-18T04:59:14.014Z,-2.60
2018-03-18T05:01:41.896Z,-2.60
2018-03-18T05:04:09.803Z,-2.60
2018-03-18T05:06:37.288Z,-2.60
2018-03-18T05:09:05.555Z,-2.70
2018-03-18T05:11:33.056Z,-2.70
2018-03-18T05:14:01.032Z,-2.70
2018-03-18T05:16:28.612Z,-2.70
2018-03-18T05:18:56.095Z,-2.70
2018-03-18T05:21:23.591Z,-2.60
2018-03-18T05:23:51.079Z,-2.70
2018-03-18T05:26:19.068Z,-2.70
2018-03-18T05:28:46.551Z,-2.60
2018-03-18T05:31:14.151Z,-2.70
2018-03-18T05:33:42.031Z,-2.60
2018-03-18T05:36:09.540Z,-2.50
2018-03-18T05:38:37.027Z,-2.70
2018-03-18T05:41:04.536Z,-2.70
2018-03-18T05:43:32.023Z,-2.80
2018-03-18T05:45:59.519Z,-2.80
2018-03-18T05:48:27.019Z,-2.80
2018-03-18T05:50:54.528Z,-2.80
2018-03-18T05:53:22.411Z,-2.80
2018-03-18T05:55:49.944Z,-2.80
2018-03-18T05:58:17.431Z,-2.90
2018-03-18T06:00:44.947Z,-3.00
2018-03-18T06:03:12.527Z,-3.00
2018-03-18T06:05:40.107Z,-3.00
2018-03-18T06:08:07.600Z,-2.90
2018-03-18T06:10:35.104Z,-3.00
2018-03-18T06:13:02.988Z,-3.00
2018-03-18T06:15:30.884Z,-2.90
2018-03-18T06:17:58.883Z,-2.90
2018-03-18T06:20:26.369Z,-3.00
2018-03-18T06:22:54.252Z,-2.90
2018-03-18T06:25:22.169Z,-2.80
2018-03-18T06:27:49.656Z,-2.80
2018-03-18T06:30:17.159Z,-2.80
2018-03-18T06:32:44.658Z,-2.80
2018-03-18T06:35:12.171Z,-2.80
2018-03-18T06:37:39.650Z,-2.80
2018-03-18T06:40:07.549Z,-2.90
2018-03-18T06:42:35.514Z,-2.80
2018-03-18T06:45:03.003Z,-2.90
2018-03-18T06:47:30.508Z,-2.80
2018-03-18T06:49:58.391Z,-2.90
2018-03-18T06:52:25.963Z,-2.90
2018-03-18T06:54:53.492Z,-2.90
2018-03-18T06:57:21.240Z,-2.90
2018-03-18T06:59:48.775Z,-3.00
2018-03-18T07:02:16.275Z,-3.00
2018-03-18T07:04:43.772Z,-3.00
2018-03-18T07:07:11.275Z,-3.00
2018-03-18T07:09:38.755Z,-2.90
2018-03-18T07:12:07.259Z,-2.80
2018-03-18T07:14:34.743Z,-2.80
2018-03-18T07:17:02.357Z,-2.90
2018-03-18T07:19:30.324Z,-2.80
2018-03-18T07:21:57.843Z,-2.80
2018-03-18T07:24:25.714Z,-2.70
2018-03-18T07:26:53.234Z,-2.80
2018-03-18T07:29:20.723Z,-2.70
2018-03-18T07:31:48.227Z,-2.70
2018-03-18T07:34:15.755Z,-2.70
2018-03-18T07:36:43.662Z,-2.70
2018-03-18T07:39:11.150Z,-2.70
2018-03-18T07:41:38.662Z,-2.70
2018-03-18T07:44:06.147Z,-2.70
2018-03-18T07:46:33.652Z,-1.30
2018-03-18T07:49:01.141Z,-1.90
2018-03-18T07:51:28.723Z,-2.40
2018-03-18T07:53:56.207Z,-2.60
2018-03-18T07:56:23.715Z,-2.70
2018-03-18T07:58:51.600Z,-2.90
2018-03-18T08:01:19.096Z,-2.90
2018-03-18T08:03:46.576Z,-2.80
2018-03-18T08:06:14.544Z,-2.80
2018-03-18T08:08:42.027Z,-2.80
2018-03-18T08:11:09.515Z,-2.80
2018-03-18T08:13:37.011Z,-2.80
2018-03-18T08:16:04.883Z,-2.80
2018-03-18T08:18:32.383Z,-2.70
2018-03-18T08:21:00.263Z,-2.60
2018-03-18T08:23:27.795Z,-2.60
2018-03-18T08:25:55.283Z,-2.50
2018-03-18T08:28:22.803Z,-2.50
2018-03-18T08:30:50.288Z,-2.40
2018-03-18T08:33:17.794Z,-2.30
2018-03-18T08:35:45.371Z,-2.30
2018-03-18T08:38:12.876Z,-2.20
2018-03-18T08:40:40.755Z,-2.00
2018-03-18T08:43:08.647Z,-1.90
2018-03-18T08:45:36.720Z,-1.80
2018-03-18T08:48:04.308Z,-1.80
2018-03-18T08:50:31.792Z,-1.70
2018-03-18T08:52:59.295Z,-1.50
2018-03-18T08:55:27.272Z,-1.40
2018-03-18T08:57:54.797Z,-1.50
2018-03-18T09:00:22.275Z,-1.50
2018-03-18T09:02:50.336Z,-1.50
2018-03-18T09:05:18.229Z,-1.40
2018-03-18T09:07:45.812Z,-1.40
2018-03-18T09:10:13.356Z,-1.30
2018-03-18T09:12:40.851Z,-1.20
2018-03-18T09:15:08.343Z,-1.00
2018-03-18T09:17:35.857Z,-1.00
2018-03-18T09:20:03.343Z,-0.90
2018-03-18T09:22:30.863Z,-0.90
2018-03-18T09:24:58.392Z,-0.90
2018-03-18T09:27:25.982Z,-1.00
2018-03-18T09:29:53.564Z,-1.00
2018-03-18T09:32:21.764Z,-1.10
2018-03-18T09:34:49.263Z,-1.10
2018-03-18T09:37:17.144Z,-1.20
2018-03-18T09:39:44.685Z,-1.10
2018-03-18T09:42:12.213Z,-1.20
2018-03-18T09:44:39.717Z,-1.30
2018-03-18T09:47:07.708Z,-1.30
2018-03-18T09:49:35.608Z,-1.30
2018-03-18T09:52:03.483Z,-1.20
2018-03-18T09:54:31.052Z,-1.20
2018-03-18T09:56:58.644Z,-1.20
2018-03-18T09:59:26.143Z,-1.10
2018-03-18T10:01:54.119Z,-1.00
2018-03-18T10:04:21.684Z,-1.00
2018-03-18T10:06:49.172Z,-0.90
2018-03-18T10:09:16.673Z,-0.80
2018-03-18T10:11:44.154Z,-0.70
2018-03-18T10:14:11.651Z,-0.80
2018-03-18T10:16:39.570Z,-0.80
2018-03-18T10:19:07.047Z,-0.80
2018-03-18T10:21:34.533Z,-0.80
2018-03-18T10:24:02.035Z,-0.70
2018-03-18T10:26:29.524Z,-0.80
2018-03-18T10:28:57.024Z,-0.80
2018-03-18T10:31:24.500Z,-0.70
2018-03-18T10:33:51.997Z,-0.70
2018-03-18T10:36:19.487Z,-0.80
2018-03-18T10:38:46.988Z,-0.80
2018-03-18T10:41:14.466Z,-0.80
2018-03-18T10:43:41.963Z,-0.80
2018-03-18T10:46:09.941Z,-0.80
2018-03-18T10:48:37.439Z,-0.80
2018-03-18T10:51:05.323Z,-0.70
2018-03-18T10:53:32.952Z,-0.70
2018-03-18T10:56:00.800Z,-0.60
2018-03-18T10:58:28.288Z,-0.60
2018-03-18T11:00:55.807Z,-0.50
2018-03-18T11:03:23.294Z,-0.40
2018-03-18T11:05:50.823Z,-0.30
2018-03-18T11:08:18.379Z,-0.20
2018-03-18T11:10:45.876Z,0.00
2018-03-18T11:13:13.423Z,0.20
2018-03-18T11:15:40.951Z,0.10
2018-03-18T11:18:08.531Z,0.00
2018-03-18T11:20:36.027Z,0.20
2018-03-18T11:23:03.508Z,0.30
2018-03-18T11:25:31.019Z,0.30
2018-03-18T11:27:58.987Z,0.50
2018-03-18T11:30:26.569Z,0.50
2018-03-18T11:32:54.052Z,0.50
2018-03-18T11:35:21.551Z,0.40
2018-03-18T11:37:49.036Z,0.40
2018-03-18T11:40:16.927Z,0.40
2018-03-18T11:42:44.808Z,0.40
2018-03-18T11:45:12.303Z,0.40
2018-03-18T11:47:40.210Z,0.40
2018-03-18T11:50:08.176Z,0.50
2018-03-18T11:52:35.651Z,0.50
2018-03-18T11:55:03.151Z,0.40
2018-03-18T11:57:30.628Z,0.40
2018-03-18T11:59:58.125Z,0.30
2018-03-18T12:02:26.002Z,0.10
2018-03-18T12:04:53.607Z,0.10
2018-03-18T12:07:23.055Z,0.10
2018-03-18T12:09:50.551Z,0.10
2018-03-18T12:12:18.023Z,0.10
2018-03-18T12:14:45.555Z,0.30
2018-03-18T12:17:13.032Z,0.30
2018-03-18T12:19:40.623Z,0.30
2018-03-18T12:22:08.100Z,0.30
2018-03-18T12:24:35.600Z,0.20
2018-03-18T12:27:03.086Z,0.20
2018-03-18T12:29:30.560Z,0.20
2018-03-18T12:31:58.135Z,0.30
2018-03-18T12:34:25.615Z,0.40
2018-03-18T12:36:53.199Z,0.50
2018-03-18T12:39:20.671Z,0.30
2018-03-18T12:41:48.158Z,0.30
2018-03-18T12:44:15.651Z,0.20
2018-03-18T12:46:43.148Z,0.20
2018-03-18T12:49:10.618Z,0.20
2018-03-18T12:51:38.188Z,0.20
2018-03-18T12:54:05.660Z,0.30
2018-03-18T12:56:33.159Z,0.30
2018-03-18T12:59:01.031Z,0.40
2018-03-18T13:01:28.519Z,0.40
2018-03-18T13:03:55.999Z,0.60
2018-03-18T13:06:23.590Z,0.70
2018-03-18T13:08:51.080Z,0.70
2018-03-18T13:11:18.578Z,0.60
2018-03-18T13:13:46.139Z,0.60
2018-03-18T13:16:13.639Z,0.80
2018-03-18T13:18:41.107Z,1.00
2018-03-18T13:21:08.607Z,1.10
2018-03-18T13:23:36.179Z,1.00
2018-03-18T13:26:03.674Z,2.70
2018-03-18T13:28:31.275Z,2.70
2018-03-18T13:30:59.206Z,1.80
2018-03-18T13:33:26.674Z,1.80
2018-03-18T13:35:54.199Z,1.60
2018-03-18T13:38:21.691Z,1.60
2018-03-18T13:40:49.172Z,1.50
2018-03-18T13:43:16.756Z,1.60
2018-03-18T13:45:44.235Z,1.70
2018-03-18T13:48:11.819Z,1.70
2018-03-18T13:50:39.306Z,1.70
2018-03-18T13:53:06.884Z,1.80
2018-03-18T13:55:34.355Z,1.70
2018-03-18T13:58:01.883Z,1.70
2018-03-18T14:00:29.842Z,1.90
2018-03-18T14:02:57.334Z,1.90
2018-03-18T14:05:24.806Z,1.90
2018-03-18T14:07:52.300Z,1.90
2018-03-18T14:10:19.783Z,1.90
2018-03-18T14:12:47.271Z,1.90
2018-03-18T14:15:14.751Z,2.00
2018-03-18T14:17:42.237Z,2.20
2018-03-18T14:20:09.741Z,2.30
2018-03-18T14:22:37.212Z,2.30
2018-03-18T14:25:04.687Z,2.30
2018-03-18T14:27:32.260Z,2.20
2018-03-18T14:29:59.852Z,2.10
2018-03-18T14:32:27.431Z,2.10
2018-03-18T14:34:54.908Z,2.20
2018-03-18T14:37:22.427Z,2.20
2018-03-18T14:39:49.882Z,2.10
2018-03-18T14:42:17.497Z,2.10
2018-03-18T14:44:45.464Z,2.30
2018-03-18T14:47:14.228Z,2.30
2018-03-18T14:49:41.698Z,2.20
2018-03-18T14:52:09.203Z,2.10
2018-03-18T14:54:36.679Z,2.00
2018-03-18T14:57:04.175Z,2.00
2018-03-18T14:59:32.956Z,1.90
2018-03-18T15:02:00.511Z,1.90
2018-03-18T15:04:27.987Z,1.90
2018-03-18T15:06:55.466Z,1.80
2018-03-18T15:09:23.043Z,1.60
2018-03-18T15:11:50.510Z,1.60
2018-03-18T15:14:18.007Z,1.60
2018-03-18T15:16:45.487Z,1.60
2018-03-18T15:19:12.976Z,1.70
2018-03-18T15:21:40.446Z,1.70
2018-03-18T15:24:07.943Z,1.80
2018-03-18T15:26:35.516Z,1.70
2018-03-18T15:29:03.030Z,1.60
2018-03-18T15:31:30.603Z,1.50
2018-03-18T15:33:58.087Z,1.40
2018-03-18T15:36:25.584Z,1.40
2018-03-18T15:38:53.071Z,1.40
2018-03-18T15:41:20.583Z,1.50
2018-03-18T15:43:48.067Z,1.40
2018-03-18T15:46:15.558Z,1.30
2018-03-18T15:48:43.055Z,1.30
2018-03-18T15:51:10.523Z,1.30
2018-03-18T15:53:38.143Z,2.00
2018-03-18T15:56:06.006Z,1.90
2018-03-18T15:58:33.499Z,1.90
2018-03-18T16:01:01.074Z,1.80
2018-03-18T16:03:28.591Z,1.50
2018-03-18T16:05:56.062Z,1.40
2018-03-18T16:08:23.651Z,1.30
2018-03-18T16:10:51.184Z,1.20
2018-03-18T16:13:19.172Z,1.10
2018-03-18T16:15:46.628Z,1.10
2018-03-18T16:18:14.981Z,1.10
2018-03-18T16:20:42.450Z,1.00
2018-03-18T16:23:09.943Z,1.10
2018-03-18T16:25:37.458Z,1.00
2018-03-18T16:28:05.033Z,0.90
2018-03-18T16:30:44.262Z,0.80
2018-03-18T16:33:11.799Z,0.70
2018-03-18T16:35:39.367Z,0.70
2018-03-18T16:38:06.843Z,0.70
2018-03-18T16:40:35.030Z,0.60
2018-03-18T16:43:02.516Z,0.60
2018-03-18T16:45:30.011Z,0.50
2018-03-18T16:47:57.497Z,0.50
2018-03-18T16:50:25.008Z,0.50
2018-03-18T16:52:52.504Z,0.40
2018-03-18T16:55:20.395Z,0.30
2018-03-18T16:57:47.948Z,0.30
2018-03-18T17:00:15.486Z,0.30
2018-03-18T17:02:42.967Z,0.30
2018-03-18T17:08:13.833Z,0.20
2018-03-18T17:10:41.386Z,0.20
2018-03-18T17:13:08.908Z,0.20
2018-03-18T17:15:36.915Z,0.20
2018-03-18T17:18:04.474Z,0.20
2018-03-18T17:20:32.159Z,0.20
2018-03-18T17:22:59.702Z,0.10
2018-03-18T17:25:27.274Z,0.10
2018-03-18T17:27:54.794Z,0.10
2018-03-18T17:30:22.314Z,0.10
2018-03-18T17:32:49.815Z,0.10
2018-03-18T17:35:17.470Z,0.00
2018-03-18T17:37:44.989Z,0.10
2018-03-18T17:40:12.510Z,0.00
2018-03-18T17:42:40.019Z,0.00
2018-03-18T17:45:19.957Z,0.00
2018-03-18T17:47:59.244Z,0.00
2018-03-18T17:50:38.671Z,0.00
2018-03-18T17:53:17.914Z,-0.10
2018-03-18T17:55:45.462Z,-0.10
2018-03-18T17:58:12.980Z,-0.10
2018-03-18T18:00:40.512Z,-0.10
2018-03-18T18:03:08.011Z,-0.10
2018-03-18T18:05:35.948Z,-0.10
2018-03-18T18:08:03.478Z,0.00
2018-03-18T18:10:30.992Z,0.00
2018-03-18T18:12:58.897Z,0.00
2018-03-18T18:15:26.429Z,0.00
2018-03-18T18:17:54.442Z,0.00
2018-03-18T18:20:21.987Z,0.00
2018-03-18T18:22:49.485Z,0.00
2018-03-18T18:25:17.026Z,0.00
2018-03-18T18:27:44.536Z,-0.10
2018-03-18T18:30:12.087Z,-0.20
2018-03-18T18:32:39.622Z,-0.40
2018-03-18T18:35:07.122Z,-0.40
2018-03-18T18:37:34.650Z,-0.50
2018-03-18T18:40:02.550Z,-0.50
2018-03-18T18:42:30.060Z,-0.50
2018-03-18T18:44:57.571Z,-0.60
2018-03-18T18:47:25.092Z,-0.60
2018-03-18T18:58:32.388Z,-0.50
2018-03-18T19:01:00.017Z,-0.50
2018-03-18T19:03:27.569Z,-0.60
2018-03-18T19:05:55.267Z,-0.60
2018-03-18T19:08:22.780Z,-0.60
2018-03-18T19:10:51.005Z,-0.70
2018-03-18T19:13:18.743Z,-0.70
2018-03-18T19:15:46.395Z,-0.60
2018-03-18T19:18:13.892Z,-0.60
2018-03-18T19:20:41.405Z,-0.70
2018-03-18T19:23:08.999Z,-0.70
2018-03-18T19:25:36.599Z,-0.80
2018-03-18T19:28:04.113Z,-0.90
2018-03-18T19:30:31.790Z,-0.90
2018-03-18T19:32:59.701Z,-1.00
2018-03-18T19:35:27.183Z,-1.00
2018-03-18T19:37:54.691Z,-1.00
2018-03-18T19:40:22.177Z,-1.00
2018-03-18T19:42:49.695Z,-1.00
2018-03-18T19:45:17.173Z,-1.00
2018-03-18T19:47:44.760Z,-1.00
2018-03-18T19:50:12.375Z,-0.90
2018-03-18T19:52:39.890Z,-0.90
2018-03-18T19:55:07.439Z,-0.90
2018-03-18T19:57:35.371Z,-1.00
2018-03-18T20:03:01.263Z,-1.00
2018-03-18T20:05:28.740Z,-1.10
2018-03-18T20:07:56.239Z,-1.00
2018-03-18T20:10:23.723Z,-1.00
2018-03-18T20:12:51.228Z,-1.10
2018-03-18T20:15:18.739Z,-1.10
2018-03-18T20:17:46.240Z,-1.10
2018-03-18T20:20:13.716Z,-1.10
2018-03-18T20:22:41.221Z,-1.10
2018-03-18T20:25:08.740Z,-1.20
2018-03-18T20:27:36.235Z,-1.20
2018-03-18T20:30:04.207Z,-1.20
2018-03-18T20:32:31.725Z,-1.10
2018-03-18T20:36:58.068Z,-1.10
2018-03-18T20:39:25.543Z,-1.20
2018-03-18T20:41:53.103Z,-1.30
2018-03-18T20:44:20.976Z,-1.20
2018-03-18T20:46:48.469Z,-1.20
2018-03-18T20:49:16.039Z,-1.30
2018-03-18T20:51:43.540Z,-1.30
2018-03-18T20:54:11.039Z,-1.30
2018-03-18T20:56:38.517Z,-1.30
2018-03-18T20:59:06.011Z,-1.30
2018-03-18T21:01:33.975Z,-1.30
2018-03-18T21:04:01.499Z,-1.20
2018-03-18T21:06:29.375Z,-1.20
2018-03-18T21:08:56.943Z,-1.20
2018-03-18T21:11:24.424Z,-1.20
2018-03-18T21:13:51.919Z,-1.10
2018-03-18T21:16:19.395Z,-1.20
2018-03-18T21:18:46.890Z,-1.20
2018-03-18T21:21:14.453Z,-1.20
2018-03-18T21:23:41.947Z,-1.20
2018-03-18T21:26:11.943Z,-1.20
2018-03-18T21:28:39.456Z,-1.20
2018-03-18T21:31:06.935Z,-1.30
2018-03-18T21:33:34.434Z,-1.30
2018-03-18T21:36:01.915Z,-1.30
2018-03-18T21:38:30.348Z,-1.30
2018-03-18T21:40:57.959Z,-1.30
2018-03-18T21:43:25.851Z,-1.40
2018-03-18T21:45:53.337Z,-1.30
2018-03-18T21:48:20.844Z,-1.40
2018-03-18T21:50:48.915Z,-1.50
2018-03-18T21:53:16.504Z,-1.40
2018-03-18T21:55:43.988Z,-1.50
2018-03-18T21:58:11.586Z,-1.50
2018-03-18T22:00:39.060Z,-1.50
2018-03-18T22:03:06.554Z,-1.50
2018-03-18T22:05:34.027Z,-1.50
2018-03-18T22:08:01.524Z,-1.50
2018-03-18T22:10:29.020Z,-1.40
2018-03-18T22:12:56.589Z,-1.50
2018-03-18T22:15:24.087Z,-1.50
2018-03-18T22:17:51.567Z,-1.50
2018-03-18T22:20:19.064Z,-1.50
2018-03-18T22:22:47.022Z,-1.40
2018-03-18T22:25:14.530Z,-1.40
2018-03-18T22:27:42.099Z,-1.40
2018-03-18T22:30:09.591Z,-1.50
2018-03-18T22:32:37.075Z,-1.50
2018-03-18T22:35:04.571Z,-1.40
2018-03-18T22:37:32.448Z,-1.50
2018-03-18T22:40:00.033Z,-1.50
2018-03-18T22:42:27.619Z,-1.60
2018-03-18T22:44:55.120Z,-1.50
2018-03-18T22:47:23.000Z,-1.60
2018-03-18T22:49:50.487Z,-1.50
2018-03-18T22:52:17.963Z,-1.50
2018-03-18T22:54:45.459Z,-1.50
2018-03-18T22:57:13.036Z,-1.50
2018-03-18T22:59:40.531Z,-1.60
2018-03-18T23:02:08.003Z,-1.60
2018-03-18T23:04:35.595Z,-1.60
2018-03-18T23:07:03.072Z,-1.70
2018-03-18T23:09:30.576Z,-1.60
2018-03-18T23:11:58.160Z,-1.60
2018-03-18T23:14:25.667Z,-1.60
2018-03-18T23:16:53.135Z,-1.60
2018-03-18T23:19:20.636Z,-1.60
2018-03-18T23:21:48.214Z,-1.60
2018-03-18T23:24:15.713Z,-1.60
2018-03-18T23:26:43.200Z,-1.70
2018-03-18T23:29:10.700Z,-1.70
2018-03-18T23:31:38.175Z,-1.70
2018-03-18T23:34:05.659Z,-1.70
2018-03-18T23:36:33.155Z,-1.70
2018-03-18T23:39:00.652Z,-1.70
2018-03-18T23:41:28.151Z,-1.70
2018-03-18T23:43:55.719Z,-1.70
2018-03-18T23:46:23.307Z,-1.80
2018-03-18T23:48:50.783Z,-1.70
2018-03-18T23:51:18.379Z,-1.80
2018-03-18T23:53:46.363Z,-1.80
2018-03-18T23:56:14.086Z,-1.80
2018-03-18T23:58:41.959Z,-1.80
